Time;durP1;ratioP1;P1;durP2;ratioP2;P2;SDS_P1;SDS_P2;PMS_P1;PMS_P2;Temp;Humidity;BMP_temperature;BMP_pressure;BME280_temperature;BME280_humidity;BME280_pressure;Samples;Min_cycle;Max_cycle;Signal;HPM_P1;HPM_P2
2021/04/18 00:01:04;;;;;;;6.50;4.18;;;6.20;70.20;;;;;;5014500;28;20052;-70
2021/04/18 00:03:30;;;;;;;5.85;3.92;;;6.20;70.40;;;;;;5011153;28;20030;-70
2021/04/18 00:05:56;;;;;;;4.85;4.13;;;6.20;70.30;;;;;;5013779;28;20083;-70
2021/04/18 00:08:22;;;;;;;7.95;4.30;;;6.20;70.20;;;;;;5014591;28;20474;-70
2021/04/18 00:10:48;;;;;;;5.88;3.92;;;6.20;70.30;;;;;;5014313;28;20026;-70
2021/04/18 00:13:15;;;;;;;8.10;3.95;;;6.20;70.30;;;;;;5014979;28;20028;-70
2021/04/18 00:15:42;;;;;;;6.05;3.97;;;6.20;70.40;;;;;;5011700;28;20041;-70
2021/04/18 00:18:09;;;;;;;6.18;4.38;;;6.20;70.30;;;;;;5008742;28;20036;-70
2021/04/18 00:20:36;;;;;;;6.03;4.53;;;6.20;70.30;;;;;;5014348;28;20489;-70
2021/04/18 00:23:02;;;;;;;5.25;4.18;;;6.30;70.50;;;;;;5013287;28;20034;-70
2021/04/18 00:25:28;;;;;;;12.50;4.40;;;6.30;70.50;;;;;;5002957;28;20033;-70
2021/04/18 00:27:53;;;;;;;4.70;3.70;;;6.30;70.40;;;;;;5014198;28;20026;-70
2021/04/18 00:30:21;;;;;;;6.13;4.38;;;6.30;70.30;;;;;;5013069;28;20474;-70
2021/04/18 00:32:48;;;;;;;8.18;4.18;;;6.30;70.40;;;;;;5014288;28;20061;-70
2021/04/18 00:35:15;;;;;;;6.93;4.13;;;6.30;70.40;;;;;;5013308;28;20117;-70
2021/04/18 00:37:42;;;;;;;6.72;4.70;;;6.40;70.50;;;;;;5013936;28;20052;-70
2021/04/18 00:40:10;;;;;;;5.60;4.68;;;6.40;70.40;;;;;;5013186;28;20032;-70
2021/04/18 00:42:36;;;;;;;6.35;4.57;;;6.40;70.60;;;;;;5014593;28;20108;-70
2021/04/18 00:45:02;;;;;;;7.00;4.30;;;6.40;70.50;;;;;;5000881;28;20116;-70
2021/04/18 00:47:32;;;;;;;5.95;4.38;;;6.40;70.40;;;;;;5013932;28;20026;-70
2021/04/18 00:50:03;;;;;;;7.65;4.30;;;6.40;70.50;;;;;;5013887;28;20116;-70
2021/04/18 00:52:28;;;;;;;5.68;4.25;;;6.40;70.40;;;;;;5011093;28;20029;-70
2021/04/18 00:54:54;;;;;;;6.63;4.85;;;6.40;70.40;;;;;;5012726;28;20040;-70
2021/04/18 00:57:20;;;;;;;5.93;4.57;;;6.40;70.50;;;;;;5013663;28;20116;-70
2021/04/18 00:59:46;;;;;;;5.55;4.43;;;6.40;70.40;;;;;;5013482;28;20034;-70
2021/04/18 01:02:12;;;;;;;5.68;4.75;;;6.40;70.50;;;;;;5013716;28;20055;-70
2021/04/18 01:04:37;;;;;;;8.25;4.57;;;6.40;70.40;;;;;;5010974;28;20026;-70
2021/04/18 01:07:03;;;;;;;7.28;5.03;;;6.30;70.40;;;;;;4999333;28;20120;-70
2021/04/18 01:09:30;;;;;;;6.32;4.85;;;6.30;70.40;;;;;;5013120;28;20057;-70
2021/04/18 01:11:57;;;;;;;5.88;4.82;;;6.20;70.40;;;;;;5013395;28;20545;-70
2021/04/18 01:14:23;;;;;;;8.25;5.35;;;6.20;70.60;;;;;;5011183;28;20022;-70
2021/04/18 01:16:48;;;;;;;10.30;5.65;;;6.20;70.80;;;;;;5031145;28;20033;-70
2021/04/18 01:19:14;;;;;;;6.35;4.93;;;6.20;70.90;;;;;;5011047;28;20026;-70
2021/04/18 01:21:40;;;;;;;6.88;5.28;;;6.20;70.90;;;;;;5013523;28;20029;-70
2021/04/18 01:24:06;;;;;;;8.77;5.10;;;6.30;70.90;;;;;;5012484;28;20068;-70
2021/04/18 01:26:33;;;;;;;6.05;4.80;;;6.30;70.80;;;;;;5026670;28;20106;-70
2021/04/18 01:28:59;;;;;;;6.30;4.70;;;6.30;70.70;;;;;;5013507;28;20030;-70
2021/04/18 01:31:24;;;;;;;7.93;4.90;;;6.20;70.70;;;;;;5013056;28;20398;-70
2021/04/18 01:33:50;;;;;;;6.88;4.93;;;6.20;70.80;;;;;;5011947;28;20087;-70
2021/04/18 01:36:16;;;;;;;6.25;4.75;;;6.30;70.90;;;;;;5005898;28;20040;-70
2021/04/18 01:38:42;;;;;;;6.55;4.88;;;6.20;70.80;;;;;;5013555;28;20061;-70
2021/04/18 01:41:09;;;;;;;8.63;5.22;;;6.30;70.90;;;;;;5012697;28;20386;-70
2021/04/18 01:43:37;;;;;;;7.80;5.43;;;6.20;70.90;;;;;;5030655;28;20451;-70
2021/04/18 01:46:03;;;;;;;7.95;5.35;;;6.20;70.80;;;;;;5012336;28;20120;-70
2021/04/18 01:48:29;;;;;;;8.45;5.28;;;6.20;70.80;;;;;;5013245;28;20457;-70
2021/04/18 01:50:54;;;;;;;10.15;5.15;;;6.20;70.90;;;;;;5016874;28;20022;-70
2021/04/18 01:53:20;;;;;;;6.78;5.07;;;6.20;70.90;;;;;;5019097;28;20026;-70
2021/04/18 01:55:46;;;;;;;9.02;5.40;;;6.20;71.00;;;;;;5003775;28;20025;-70
2021/04/18 01:58:11;;;;;;;7.55;5.13;;;6.30;71.00;;;;;;5019511;28;20049;-70
2021/04/18 02:00:37;;;;;;;7.40;5.53;;;6.30;71.00;;;;;;5019121;28;20022;-70
2021/04/18 02:03:03;;;;;;;7.90;5.72;;;6.30;71.00;;;;;;5019665;28;20041;-70
2021/04/18 02:05:30;;;;;;;9.05;5.80;;;6.30;71.00;;;;;;5017950;28;20080;-70
2021/04/18 02:07:57;;;;;;;8.00;5.47;;;6.30;71.00;;;;;;5019695;28;20056;-70
2021/04/18 02:10:23;;;;;;;7.15;5.40;;;6.30;71.00;;;;;;5017853;28;20500;-70
2021/04/18 02:12:49;;;;;;;8.10;5.47;;;6.30;71.00;;;;;;5019339;28;20060;-70
2021/04/18 02:15:15;;;;;;;9.32;5.55;;;6.30;71.00;;;;;;5018519;28;20026;-70
2021/04/18 02:17:41;;;;;;;7.32;5.32;;;6.30;71.10;;;;;;5019314;28;20018;-70
2021/04/18 02:20:07;;;;;;;9.82;5.20;;;6.30;71.20;;;;;;5004862;28;20055;-70
2021/04/18 02:22:34;;;;;;;6.18;5.00;;;6.30;71.20;;;;;;5016287;28;20050;-70
2021/04/18 02:25:00;;;;;;;8.90;5.07;;;6.30;71.20;;;;;;5036285;28;20048;-70
2021/04/18 02:27:27;;;;;;;11.05;5.15;;;6.30;71.20;;;;;;5019204;28;20029;-70
2021/04/18 02:29:54;;;;;;;5.70;4.97;;;6.30;71.20;;;;;;5019323;28;20442;-70
2021/04/18 02:32:20;;;;;;;5.93;4.78;;;6.30;71.30;;;;;;5018931;28;20068;-70
2021/04/18 02:34:47;;;;;;;9.45;5.45;;;6.30;71.30;;;;;;5014533;28;20033;-70
2021/04/18 02:37:13;;;;;;;5.90;5.10;;;6.30;71.30;;;;;;5019460;28;20029;-70
2021/04/18 02:39:39;;;;;;;7.15;5.55;;;6.30;71.30;;;;;;5019431;28;20163;-70
2021/04/18 02:42:05;;;;;;;5.80;4.90;;;6.30;71.80;;;;;;5018939;28;20075;-70
2021/04/18 02:44:30;;;;;;;6.20;5.45;;;6.30;71.30;;;;;;5018171;28;20040;-70
2021/04/18 02:46:56;;;;;;;8.00;5.10;;;6.30;71.40;;;;;;5018898;28;20029;-70
2021/04/18 02:49:22;;;;;;;5.53;4.65;;;6.30;71.50;;;;;;5027219;28;20029;-70
2021/04/18 02:51:48;;;;;;;8.20;5.28;;;6.30;71.50;;;;;;5007264;28;20018;-70
2021/04/18 02:54:13;;;;;;;8.00;5.32;;;6.30;71.60;;;;;;5018234;28;20028;-70
2021/04/18 02:56:39;;;;;;;8.77;5.53;;;6.20;71.40;;;;;;5018475;28;20071;-70
2021/04/18 02:59:05;;;;;;;7.70;5.57;;;6.20;71.50;;;;;;5019388;28;20025;-70
2021/04/18 03:01:30;;;;;;;8.40;5.53;;;6.20;71.50;;;;;;5016320;28;20044;-70
2021/04/18 03:03:56;;;;;;;6.63;5.78;;;6.20;71.60;;;;;;5010364;28;20108;-70
2021/04/18 03:06:22;;;;;;;7.35;5.82;;;6.20;71.60;;;;;;5003382;28;20116;-70
2021/04/18 03:08:47;;;;;;;8.80;6.03;;;6.20;71.60;;;;;;5016015;28;20021;-70
2021/04/18 03:11:13;;;;;;;10.07;6.25;;;6.20;71.70;;;;;;5015477;28;20018;-70
2021/04/18 03:13:39;;;;;;;8.52;6.18;;;6.20;71.80;;;;;;5015998;28;20033;-70
2021/04/18 03:16:05;;;;;;;7.80;5.85;;;6.20;71.80;;;;;;5014668;28;20030;-70
2021/04/18 03:18:31;;;;;;;7.47;5.75;;;6.10;71.90;;;;;;5015062;28;20440;-70
2021/04/18 03:20:57;;;;;;;9.93;5.82;;;6.10;72.00;;;;;;5015643;28;20037;-70
2021/04/18 03:23:23;;;;;;;9.13;5.97;;;6.10;72.00;;;;;;5033278;28;20033;-70
2021/04/18 03:25:49;;;;;;;6.65;6.00;;;6.20;72.10;;;;;;5014729;28;20034;-70
2021/04/18 03:28:15;;;;;;;10.70;6.68;;;6.20;72.20;;;;;;5015256;28;20049;-70
2021/04/18 03:30:41;;;;;;;7.57;6.07;;;6.20;72.10;;;;;;5015572;28;20436;-70
2021/04/18 03:33:06;;;;;;;8.88;6.70;;;6.20;72.00;;;;;;5015230;28;20029;-70
2021/04/18 03:35:32;;;;;;;6.90;6.10;;;6.20;72.00;;;;;;5007070;28;20140;-70
2021/04/18 03:37:58;;;;;;;6.65;5.95;;;6.20;72.10;;;;;;5015451;28;20037;-70
2021/04/18 03:40:23;;;;;;;8.63;7.03;;;6.20;72.10;;;;;;5015397;28;20029;-70
2021/04/18 03:42:49;;;;;;;9.65;7.05;;;6.20;72.20;;;;;;5014599;28;20029;-70
2021/04/18 03:45:16;;;;;;;13.55;7.07;;;6.20;72.20;;;;;;5014646;28;20601;-70
2021/04/18 03:47:43;;;;;;;7.25;6.22;;;6.20;72.20;;;;;;5024241;28;20033;-70
2021/04/18 03:50:10;;;;;;;10.63;6.78;;;6.20;72.20;;;;;;5003926;28;20060;-70
2021/04/18 03:52:36;;;;;;;7.97;6.65;;;6.30;72.40;;;;;;5014864;28;20393;-70
2021/04/18 03:55:02;;;;;;;8.93;6.28;;;6.30;72.30;;;;;;5015102;28;20108;-70
2021/04/18 03:57:28;;;;;;;7.60;6.53;;;6.30;72.30;;;;;;5007294;28;20033;-70
2021/04/18 03:59:54;;;;;;;8.48;6.68;;;6.30;72.20;;;;;;5027895;23;20524;-72
2021/04/18 04:02:20;;;;;;;8.80;6.22;;;6.30;72.30;;;;;;5028798;28;20028;-72
2021/04/18 04:04:45;;;;;;;8.52;6.65;;;6.30;72.30;;;;;;5027289;28;20497;-72
2021/04/18 04:07:11;;;;;;;10.38;6.97;;;6.30;72.30;;;;;;5016021;28;20041;-72
2021/04/18 04:09:38;;;;;;;9.13;7.20;;;6.30;72.40;;;;;;5016322;28;20026;-71
2021/04/18 04:12:05;;;;;;;8.85;6.38;;;6.30;72.30;;;;;;5015893;28;20028;-71
2021/04/18 04:14:31;;;;;;;9.23;6.10;;;6.30;72.20;;;;;;4999208;28;20041;-71
2021/04/18 04:16:56;;;;;;;9.43;7.35;;;6.20;72.10;;;;;;5016079;28;20029;-71
2021/04/18 04:19:22;;;;;;;9.10;6.63;;;6.20;72.20;;;;;;5016603;28;20037;-71
2021/04/18 04:21:48;;;;;;;9.68;7.13;;;6.20;72.30;;;;;;5033214;28;20029;-72
2021/04/18 04:24:14;;;;;;;7.13;6.35;;;6.20;72.40;;;;;;5027473;28;20040;-70
2021/04/18 04:26:39;;;;;;;10.00;6.93;;;6.20;72.50;;;;;;5015425;28;20029;-71
2021/04/18 04:29:05;;;;;;;9.80;7.28;;;6.20;72.50;;;;;;5015242;28;20132;-72
2021/04/18 04:31:31;;;;;;;8.70;6.93;;;6.20;72.50;;;;;;5014389;28;20053;-72
2021/04/18 04:33:57;;;;;;;10.23;6.95;;;6.20;72.40;;;;;;5031182;28;20021;-72
2021/04/18 04:36:23;;;;;;;9.05;6.55;;;6.20;72.40;;;;;;5014986;28;20087;-71
2021/04/18 04:38:49;;;;;;;9.45;7.00;;;6.20;72.50;;;;;;5014926;28;20061;-71
2021/04/18 04:41:14;;;;;;;8.63;7.25;;;6.20;72.50;;;;;;5014364;28;20032;-72
2021/04/18 04:43:40;;;;;;;8.88;7.40;;;6.20;72.60;;;;;;5014519;28;20461;-71
2021/04/18 04:46:06;;;;;;;9.13;7.13;;;6.20;72.50;;;;;;5003521;28;20029;-72
2021/04/18 04:48:32;;;;;;;10.65;7.07;;;6.20;72.50;;;;;;5010174;28;20037;-72
2021/04/18 04:50:58;;;;;;;10.60;7.82;;;6.20;72.50;;;;;;5002380;28;20116;-71
2021/04/18 04:53:23;;;;;;;9.43;7.72;;;6.20;72.50;;;;;;5014153;28;20026;-72
2021/04/18 04:55:49;;;;;;;10.63;7.43;;;6.20;72.60;;;;;;5025598;28;20029;-72
2021/04/18 04:58:15;;;;;;;10.75;7.45;;;6.20;72.60;;;;;;5030309;28;20396;-72
2021/04/18 05:00:42;;;;;;;12.82;7.90;;;6.20;72.40;;;;;;5033252;28;20054;-72
2021/04/18 05:03:09;;;;;;;13.32;8.68;;;6.20;72.50;;;;;;5014180;28;20026;-72
2021/04/18 05:05:34;;;;;;;11.23;8.02;;;6.20;72.60;;;;;;5012282;28;20117;-71
2021/04/18 05:08:00;;;;;;;9.75;7.05;;;6.30;72.60;;;;;;5014227;28;20112;-71
2021/04/18 05:10:26;;;;;;;11.70;7.15;;;6.30;72.60;;;;;;5014511;28;20055;-71
2021/04/18 05:12:52;;;;;;;8.82;7.07;;;6.30;72.60;;;;;;5016909;28;20072;-72
2021/04/18 05:15:21;;;;;;;8.98;7.25;;;6.30;72.60;;;;;;5034361;28;20094;-72
2021/04/18 05:17:47;;;;;;;11.60;7.43;;;6.30;72.70;;;;;;5014957;28;20036;-71
2021/04/18 05:20:14;;;;;;;9.13;7.47;;;6.30;72.70;;;;;;5014021;28;20045;-72
2021/04/18 05:22:39;;;;;;;10.95;7.20;;;6.30;72.70;;;;;;5013886;28;20028;-73
2021/04/18 05:25:05;;;;;;;10.10;7.00;;;6.30;72.60;;;;;;5012400;28;20025;-72
2021/04/18 05:27:31;;;;;;;14.73;7.93;;;6.30;72.70;;;;;;5006644;28;20030;-72
2021/04/18 05:29:57;;;;;;;8.93;7.25;;;6.30;72.60;;;;;;5014065;28;20033;-72
2021/04/18 05:32:22;;;;;;;11.65;7.80;;;6.30;72.40;;;;;;5013874;28;20101;-72
2021/04/18 05:34:48;;;;;;;10.32;7.60;;;6.30;72.30;;;;;;5013575;28;20025;-72
2021/04/18 05:37:14;;;;;;;9.57;7.00;;;6.30;72.40;;;;;;5013837;28;20025;-72
2021/04/18 05:39:40;;;;;;;12.52;9.15;;;6.20;72.50;;;;;;5013836;28;20226;-72
2021/04/18 05:42:06;;;;;;;10.23;6.63;;;6.20;72.50;;;;;;5013789;28;20458;-72
2021/04/18 05:44:32;;;;;;;12.05;6.82;;;6.20;72.60;;;;;;5022989;28;20087;-72
2021/04/18 05:46:58;;;;;;;8.80;6.45;;;6.20;72.50;;;;;;5013549;28;20030;-71
2021/04/18 05:49:23;;;;;;;10.85;7.10;;;6.20;72.60;;;;;;5013134;28;20025;-71
2021/04/18 05:51:49;;;;;;;10.20;6.63;;;6.20;72.60;;;;;;5013489;28;20025;-72
2021/04/18 05:54:15;;;;;;;11.40;7.60;;;6.20;72.70;;;;;;5013024;28;20567;-71
2021/04/18 05:56:40;;;;;;;7.80;6.85;;;6.20;73.30;;;;;;5013561;28;20510;-71
2021/04/18 05:59:06;;;;;;;9.38;7.15;;;6.10;72.70;;;;;;5021851;28;20033;-71
2021/04/18 06:01:33;;;;;;;9.15;7.70;;;6.10;72.70;;;;;;5034655;28;20182;-71
2021/04/18 06:03:59;;;;;;;8.32;6.88;;;6.10;72.80;;;;;;5013082;28;20062;-71
2021/04/18 06:06:27;;;;;;;10.68;7.57;;;6.10;73.00;;;;;;5012303;28;20030;-71
2021/04/18 06:08:54;;;;;;;8.35;7.15;;;6.20;73.10;;;;;;5013445;28;20044;-71
2021/04/18 06:11:20;;;;;;;10.68;7.50;;;6.20;72.90;;;;;;5013294;28;20022;-72
2021/04/18 06:13:47;;;;;;;12.20;7.70;;;6.20;72.90;;;;;;5013261;28;20091;-71
2021/04/18 06:16:13;;;;;;;10.02;6.95;;;6.30;73.00;;;;;;5013270;28;20025;-72
2021/04/18 06:18:38;;;;;;;9.07;7.57;;;6.30;73.00;;;;;;5012934;28;20021;-71
2021/04/18 06:21:05;;;;;;;11.65;8.05;;;6.40;73.00;;;;;;5024983;28;20057;-72
2021/04/18 06:23:31;;;;;;;11.02;7.18;;;6.40;72.90;;;;;;5012927;28;20417;-72
2021/04/18 06:25:57;;;;;;;7.15;6.07;;;6.40;72.80;;;;;;5012880;28;20029;-71
2021/04/18 06:28:23;;;;;;;7.32;6.40;;;6.40;72.70;;;;;;5021838;28;20060;-71
2021/04/18 06:30:49;;;;;;;7.47;5.70;;;6.40;72.70;;;;;;5013096;28;20080;-71
2021/04/18 06:33:15;;;;;;;6.75;5.35;;;6.50;72.70;;;;;;5012649;28;20033;-71
2021/04/18 06:35:41;;;;;;;8.77;5.80;;;6.50;72.70;;;;;;5012657;28;20526;-71
2021/04/18 06:38:07;;;;;;;7.70;5.60;;;6.50;72.70;;;;;;5015215;28;20099;-72
2021/04/18 06:40:33;;;;;;;8.60;5.45;;;6.50;72.80;;;;;;5016452;28;20053;-72
2021/04/18 06:43:01;;;;;;;6.18;4.93;;;6.50;72.90;;;;;;5016135;28;20508;-72
2021/04/18 06:45:27;;;;;;;7.75;5.30;;;6.50;72.70;;;;;;5016093;28;20597;-72
2021/04/18 06:47:53;;;;;;;6.82;4.82;;;6.60;72.60;;;;;;5015769;28;20196;-72
2021/04/18 06:50:19;;;;;;;5.97;4.93;;;6.60;72.50;;;;;;5012047;28;20029;-72
2021/04/18 06:52:46;;;;;;;11.07;7.32;;;6.70;72.40;;;;;;5015909;28;20654;-72
2021/04/18 06:55:12;;;;;;;8.35;6.95;;;6.70;72.50;;;;;;5016219;28;20029;-72
2021/04/18 06:57:38;;;;;;;10.07;6.30;;;6.70;72.30;;;;;;5011922;28;20030;-72
2021/04/18 07:00:10;;;;;;;8.50;6.18;;;6.70;72.20;;;;;;5020515;28;20045;-72
2021/04/18 07:02:36;;;;;;;9.27;5.93;;;6.60;72.20;;;;;;5015992;28;20033;-72
2021/04/18 07:05:07;;;;;;;8.32;5.63;;;6.70;72.40;;;;;;5016075;28;20124;-72
2021/04/18 07:07:46;;;;;;;8.07;5.65;;;6.70;72.70;;;;;;5015966;28;20037;-72
2021/04/18 07:10:28;;;;;;;6.30;4.82;;;6.80;72.60;;;;;;5016422;28;20037;-72
2021/04/18 07:12:54;;;;;;;5.53;4.03;;;6.90;72.50;;;;;;5029367;28;20029;-72
2021/04/18 07:15:38;;;;;;;7.43;4.78;;;7.00;72.10;;;;;;5034096;28;20440;-72
2021/04/18 07:18:05;;;;;;;6.72;4.80;;;7.00;71.70;;;;;;5015473;28;20060;-72
2021/04/18 07:20:31;;;;;;;6.60;4.47;;;6.90;71.50;;;;;;5034130;28;20386;-72
2021/04/18 07:23:17;;;;;;;7.57;4.95;;;7.00;71.80;;;;;;5015917;28;20121;-72
2021/04/18 07:25:43;;;;;;;9.20;5.00;;;7.00;72.00;;;;;;5016294;28;20029;-71
2021/04/18 07:28:21;;;;;;;7.90;5.38;;;7.20;71.80;;;;;;5026781;28;20031;-72
2021/04/18 07:30:49;;;;;;;6.15;4.38;;;7.20;71.80;;;;;;5015372;28;20033;-72
2021/04/18 07:33:15;;;;;;;5.90;3.63;;;7.20;71.80;;;;;;5015248;28;20025;-72
2021/04/18 07:35:42;;;;;;;5.78;3.83;;;7.40;71.80;;;;;;5015265;28;20033;-71
2021/04/18 07:38:22;;;;;;;7.75;4.40;;;7.50;71.80;;;;;;5015631;28;20029;-73
2021/04/18 07:40:50;;;;;;;10.32;5.28;;;7.60;71.40;;;;;;5016173;28;20493;-70
2021/04/18 07:43:18;;;;;;;6.97;4.10;;;7.60;71.10;;;;;;5025003;28;20030;-71
2021/04/18 07:45:45;;;;;;;8.48;4.28;;;7.60;70.70;;;;;;5017115;28;20366;-72
2021/04/18 07:48:13;;;;;;;5.82;4.10;;;7.50;70.90;;;;;;5014903;28;20436;-72
2021/04/18 07:50:40;;;;;;;9.32;5.10;;;7.50;71.10;;;;;;5015303;28;20028;-71
2021/04/18 07:53:08;;;;;;;6.28;4.72;;;7.60;71.40;;;;;;5014959;28;20068;-71
2021/04/18 07:55:35;;;;;;;7.57;4.35;;;7.60;71.30;;;;;;5013886;28;20480;-72
2021/04/18 07:58:01;;;;;;;7.15;4.88;;;7.70;71.30;;;;;;5020268;28;20413;-71
2021/04/18 08:00:27;;;;;;;7.30;4.80;;;7.80;71.20;;;;;;5029280;28;20453;-72
2021/04/18 08:02:54;;;;;;;7.75;4.30;;;7.80;70.90;;;;;;5031801;28;20026;-71
2021/04/18 08:05:24;;;;;;;7.43;4.80;;;7.80;70.80;;;;;;5015351;28;20079;-72
2021/04/18 08:08:04;;;;;;;5.65;3.90;;;7.90;70.80;;;;;;4997969;28;20132;-71
2021/04/18 08:10:35;;;;;;;11.80;4.30;;;7.90;70.80;;;;;;5009234;28;20057;-71
2021/04/18 08:13:03;;;;;;;7.50;4.55;;;8.00;70.70;;;;;;5015562;28;20048;-71
2021/04/18 08:15:29;;;;;;;7.10;4.63;;;8.10;70.70;;;;;;5014860;28;20030;-71
2021/04/18 08:18:07;;;;;;;6.15;4.80;;;8.10;70.40;;;;;;5033814;28;20108;-73
2021/04/18 08:20:38;;;;;;;7.32;4.55;;;8.10;70.40;;;;;;5015568;28;20049;-72
2021/04/18 08:23:16;;;;;;;7.60;5.15;;;8.10;70.10;;;;;;5015239;28;20021;-71
2021/04/18 08:26:04;;;;;;;8.43;4.78;;;8.20;70.10;;;;;;5015196;28;20076;-72
2021/04/18 08:28:31;;;;;;;7.40;4.90;;;8.20;69.70;;;;;;5020830;28;20215;-72
2021/04/18 08:31:08;;;;;;;6.30;5.22;;;8.30;69.70;;;;;;5016171;28;20433;-73
2021/04/18 08:33:40;;;;;;;8.43;4.90;;;8.40;69.80;;;;;;5014745;28;20032;-73
2021/04/18 08:36:28;;;;;;;9.05;5.45;;;8.50;69.60;;;;;;5014877;28;20038;-72
2021/04/18 08:39:05;;;;;;;11.23;5.18;;;8.60;69.20;;;;;;5013673;28;20037;-72
2021/04/18 08:41:41;;;;;;;10.45;6.55;;;8.70;69.00;;;;;;5025145;28;20039;-71
2021/04/18 08:44:27;;;;;;;10.13;6.97;;;8.90;69.40;;;;;;5028081;28;20449;-71
2021/04/18 08:46:59;;;;;;;9.77;6.80;;;8.90;68.60;;;;;;5017998;28;20029;-72
2021/04/18 08:49:39;;;;;;;8.88;6.10;;;8.90;67.60;;;;;;5021764;28;20466;-72
2021/04/18 08:52:11;;;;;;;9.90;6.15;;;8.90;68.10;;;;;;5016658;28;20112;-71
2021/04/18 08:54:43;;;;;;;8.63;5.72;;;9.00;68.20;;;;;;5014273;28;20028;-71
2021/04/18 08:57:12;;;;;;;10.20;6.30;;;9.00;68.30;;;;;;5014333;28;20037;-71
2021/04/18 08:59:39;;;;;;;12.43;7.55;;;9.20;68.30;;;;;;5020927;28;20033;-70
2021/04/18 09:02:07;;;;;;;9.77;6.22;;;9.30;68.30;;;;;;5016295;28;20084;-71
2021/04/18 09:04:36;;;;;;;9.32;6.07;;;9.40;68.10;;;;;;5013436;28;20060;-71
2021/04/18 09:07:03;;;;;;;10.75;5.85;;;9.50;67.90;;;;;;5014987;28;20029;-71
2021/04/18 09:09:29;;;;;;;9.88;6.53;;;9.60;67.50;;;;;;5014192;28;20025;-71
2021/04/18 09:11:56;;;;;;;10.20;6.43;;;9.70;67.70;;;;;;5013832;28;20128;-71
2021/04/18 09:14:29;;;;;;;10.40;6.82;;;9.90;67.60;;;;;;5013802;28;20028;-71
2021/04/18 09:17:14;;;;;;;8.40;6.18;;;10.20;67.10;;;;;;5030345;28;20397;-71
2021/04/18 09:19:46;;;;;;;10.25;6.32;;;10.50;66.30;;;;;;5033237;28;20104;-71
2021/04/18 09:22:16;;;;;;;9.80;6.07;;;10.80;65.90;;;;;;5017726;28;20026;-71
2021/04/18 09:24:44;;;;;;;10.63;5.78;;;11.30;65.60;;;;;;5013597;28;20038;-71
2021/04/18 09:27:19;;;;;;;8.25;5.95;;;11.70;64.90;;;;;;5012174;28;20034;-71
2021/04/18 09:29:51;;;;;;;11.98;6.57;;;11.70;64.10;;;;;;5013450;28;20048;-69
2021/04/18 09:32:18;;;;;;;;;;;11.60;64.70;;;;;;5019503;28;20040;-69
2021/04/18 09:34:45;;;;;;;8.55;5.72;;;11.70;64.70;;;;;;5012958;28;20004;-68
2021/04/18 09:37:26;;;;;;;10.50;6.35;;;11.80;64.60;;;;;;5025599;28;20044;-69
2021/04/18 09:39:59;;;;;;;13.15;6.00;;;11.80;64.30;;;;;;5016940;28;20034;-70
2021/04/18 09:42:26;;;;;;;9.93;5.72;;;12.20;63.50;;;;;;5011364;28;20026;-69
2021/04/18 09:45:04;;;;;;;9.85;5.88;;;12.20;63.60;;;;;;5012748;28;20033;-69
2021/04/18 09:47:30;;;;;;;8.93;5.38;;;12.00;63.90;;;;;;5012962;28;20124;-68
2021/04/18 09:49:58;;;;;;;9.23;6.22;;;12.00;64.10;;;;;;5012800;28;20188;-69
2021/04/18 09:52:38;;;;;;;12.38;6.18;;;12.00;64.00;;;;;;5013364;28;20037;-68
2021/04/18 09:55:08;;;;;;;11.60;6.95;;;11.90;63.70;;;;;;5013123;28;20156;-69
2021/04/18 09:57:55;;;;;;;12.32;6.82;;;11.70;63.70;;;;;;5010205;28;20025;-69
2021/04/18 10:00:22;;;;;;;10.85;6.60;;;11.50;63.40;;;;;;5019025;28;20116;-69
2021/04/18 10:03:00;;;;;;;11.63;7.20;;;11.30;63.70;;;;;;5013449;28;20481;-69
2021/04/18 10:05:26;;;;;;;9.45;6.60;;;11.10;63.60;;;;;;5013105;28;20047;-69
2021/04/18 10:08:24;;;;;;;10.77;7.10;;;11.00;63.90;;;;;;5029546;28;20033;-69
2021/04/18 10:10:53;;;;;;;10.45;7.30;;;10.90;64.30;;;;;;5013211;28;20047;-69
2021/04/18 10:13:51;;;;;;;9.77;7.07;;;10.90;64.50;;;;;;5017298;28;20026;-69
2021/04/18 10:16:21;;;;;;;15.02;7.82;;;10.90;64.60;;;;;;5016127;28;20077;-69
2021/04/18 10:19:24;;;;;;;9.82;7.47;;;10.90;64.80;;;;;;5016913;28;20060;-69
2021/04/18 10:22:02;;;;;;;12.07;7.38;;;10.90;64.80;;;;;;5012580;28;20030;-72
2021/04/18 10:24:45;;;;;;;12.65;7.22;;;10.90;64.80;;;;;;5027372;23;20046;-71
2021/04/18 10:27:14;;;;;;;13.50;7.03;;;10.80;64.70;;;;;;5028689;28;20026;-70
2021/04/18 10:29:41;;;;;;;11.70;7.25;;;10.80;64.60;;;;;;5015955;28;20473;-69
2021/04/18 10:32:08;;;;;;;13.10;8.27;;;10.80;64.50;;;;;;5020012;28;20033;-70
2021/04/18 10:34:34;;;;;;;13.30;8.23;;;10.90;64.40;;;;;;5016838;28;20029;-69
2021/04/18 10:37:00;;;;;;;17.67;8.30;;;10.90;64.30;;;;;;5016937;28;20030;-69
2021/04/18 10:39:27;;;;;;;15.25;8.05;;;11.00;64.20;;;;;;5016663;28;20021;-69
2021/04/18 10:41:52;;;;;;;12.93;7.32;;;11.00;64.20;;;;;;5016573;28;20026;-70
2021/04/18 10:44:18;;;;;;;18.17;8.55;;;11.00;64.20;;;;;;5016840;28;20370;-70
2021/04/18 10:47:11;;;;;;;10.90;8.00;;;11.10;64.00;;;;;;5016055;28;20025;-69
2021/04/18 10:49:37;;;;;;;12.55;8.52;;;11.10;64.00;;;;;;4998482;28;20037;-70
2021/04/18 10:52:03;;;;;;;14.98;8.90;;;11.20;63.60;;;;;;5009452;28;20152;-70
2021/04/18 10:54:29;;;;;;;13.07;8.75;;;11.40;63.30;;;;;;5016270;28;20021;-71
2021/04/18 10:56:55;;;;;;;11.98;8.00;;;11.40;63.00;;;;;;5016706;28;20064;-69
2021/04/18 10:59:22;;;;;;;11.52;8.65;;;11.50;63.30;;;;;;5016629;28;20049;-69
2021/04/18 11:01:48;;;;;;;14.90;8.63;;;11.60;63.40;;;;;;5016327;28;20025;-70
2021/04/18 11:04:15;;;;;;;12.32;8.23;;;11.50;62.40;;;;;;5016230;28;20068;-69
2021/04/18 11:06:41;;;;;;;14.90;9.23;;;11.40;62.90;;;;;;5001506;28;20026;-69
2021/04/18 11:09:07;;;;;;;13.40;8.38;;;11.30;62.80;;;;;;4996965;28;20033;-69
2021/04/18 11:11:33;;;;;;;13.23;9.23;;;11.20;62.90;;;;;;5005196;28;20022;-69
2021/04/18 11:14:00;;;;;;;14.27;9.00;;;11.20;63.30;;;;;;4997072;28;20026;-69
2021/04/18 11:16:26;;;;;;;14.55;8.27;;;11.20;63.50;;;;;;5015824;28;20124;-71
2021/04/18 11:18:52;;;;;;;13.85;8.30;;;11.20;63.60;;;;;;5014081;28;20117;-69
2021/04/18 11:21:18;;;;;;;15.63;9.20;;;11.20;63.60;;;;;;5015882;28;20025;-69
2021/04/18 11:23:43;;;;;;;14.73;8.23;;;11.20;63.40;;;;;;5015062;28;20044;-69
2021/04/18 11:26:09;;;;;;;15.57;8.70;;;11.20;63.20;;;;;;5015403;28;20025;-69
2021/04/18 11:28:35;;;;;;;16.92;8.88;;;11.20;63.40;;;;;;5016113;28;20028;-69
2021/04/18 11:31:00;;;;;;;12.30;8.32;;;11.30;63.50;;;;;;5005766;28;20499;-69
2021/04/18 11:33:26;;;;;;;13.35;8.98;;;11.30;63.40;;;;;;4996312;28;20080;-71
2021/04/18 11:35:53;;;;;;;15.65;9.02;;;11.30;63.40;;;;;;4995653;28;20029;-71
2021/04/18 11:38:19;;;;;;;15.98;9.10;;;11.20;63.40;;;;;;4997108;28;20034;-69
2021/04/18 11:40:45;;;;;;;26.30;13.43;;;11.20;63.40;;;;;;5015858;28;20029;-69
2021/04/18 11:43:11;;;;;;;15.80;9.63;;;11.20;63.30;;;;;;5012613;28;20469;-69
2021/04/18 11:45:37;;;;;;;12.52;8.20;;;11.20;62.90;;;;;;4995361;28;20025;-69
2021/04/18 11:48:03;;;;;;;14.75;9.45;;;11.20;63.30;;;;;;5007948;28;20025;-69
2021/04/18 11:50:29;;;;;;;13.98;9.20;;;11.10;63.10;;;;;;5015233;28;20080;-71
2021/04/18 11:52:55;;;;;;;16.05;9.75;;;11.10;63.30;;;;;;5015413;28;20021;-69
2021/04/18 11:55:24;;;;;;;14.45;9.45;;;11.20;63.20;;;;;;5014602;28;20474;-70
2021/04/18 11:57:50;;;;;;;14.35;9.73;;;11.30;63.50;;;;;;5015292;28;20030;-69
2021/04/18 12:00:17;;;;;;;17.10;10.48;;;11.30;63.20;;;;;;5015195;28;20155;-72
2021/04/18 12:02:45;;;;;;;16.45;10.05;;;11.30;63.10;;;;;;5019219;28;20028;-69
2021/04/18 12:05:13;;;;;;;19.52;9.60;;;11.40;63.30;;;;;;5034209;28;20032;-70
2021/04/18 12:07:38;;;;;;;19.25;9.70;;;11.40;63.20;;;;;;5052890;28;20045;-69
2021/04/18 12:10:06;;;;;;;15.95;9.75;;;11.30;63.00;;;;;;5015364;28;20033;-69
2021/04/18 12:12:32;;;;;;;16.50;10.50;;;11.30;63.00;;;;;;5014980;28;20029;-69
2021/04/18 12:14:57;;;;;;;16.05;10.15;;;11.20;62.90;;;;;;5014583;28;20048;-70
2021/04/18 12:17:23;;;;;;;15.35;9.43;;;11.10;63.20;;;;;;5018569;28;20532;-69
2021/04/18 12:19:49;;;;;;;16.50;9.95;;;11.10;63.30;;;;;;5021545;28;20113;-69
2021/04/18 12:22:14;;;;;;;17.27;9.10;;;11.10;63.20;;;;;;5024754;28;20083;-69
2021/04/18 12:24:41;;;;;;;17.27;9.38;;;11.00;62.90;;;;;;5013968;28;20034;-69
2021/04/18 12:27:07;;;;;;;16.40;9.45;;;11.00;63.00;;;;;;5014790;28;20032;-69
2021/04/18 12:29:33;;;;;;;15.90;9.70;;;11.00;63.20;;;;;;5014965;28;20112;-69
2021/04/18 12:31:59;;;;;;;17.45;9.95;;;11.00;63.30;;;;;;5014875;28;20449;-69
2021/04/18 12:34:25;;;;;;;13.70;9.45;;;11.00;63.40;;;;;;5014595;28;20049;-69
2021/04/18 12:36:50;;;;;;;15.25;9.13;;;11.00;63.40;;;;;;5003688;28;20030;-69
2021/04/18 12:39:16;;;;;;;16.17;10.07;;;11.10;63.50;;;;;;5006976;28;20055;-70
2021/04/18 12:41:42;;;;;;;14.80;9.48;;;11.10;63.30;;;;;;5014703;28;20037;-69
2021/04/18 12:44:07;;;;;;;12.45;8.93;;;11.10;63.30;;;;;;5014087;28;20095;-69
2021/04/18 12:46:33;;;;;;;12.98;8.35;;;11.00;63.10;;;;;;5014378;28;20112;-69
2021/04/18 12:48:59;;;;;;;16.60;8.80;;;10.90;63.20;;;;;;5014488;28;20450;-69
2021/04/18 12:51:27;;;;;;;13.15;8.55;;;10.90;63.30;;;;;;5014090;28;20017;-70
2021/04/18 12:53:53;;;;;;;13.07;8.48;;;10.90;63.50;;;;;;5013585;28;20066;-70